createdAt,value
2023-04-16T00:02:00.891Z,4.47
2023-04-16T00:04:27.385Z,7.10
2023-04-16T00:06:54.783Z,3.85
2023-04-16T00:09:21.318Z,4.75
2023-04-16T00:11:47.731Z,4.38
2023-04-16T00:14:14.116Z,7.97
2023-04-16T00:16:40.600Z,2.63
2023-04-16T00:19:07.257Z,3.42
2023-04-16T00:21:33.768Z,3.88
2023-04-16T00:24:00.284Z,3.53
2023-04-16T00:26:26.706Z,6.88
2023-04-16T00:28:53.050Z,5.23
2023-04-16T00:31:26.918Z,4.18
2023-04-16T00:33:53.387Z,4.25
2023-04-16T00:36:19.758Z,6.68
2023-04-16T00:38:46.163Z,5.13
2023-04-16T00:41:12.553Z,5.53
2023-04-16T00:43:38.980Z,5.30
2023-04-16T00:46:07.116Z,4.95
2023-04-16T00:48:34.945Z,5.22
2023-04-16T00:51:01.832Z,6.65
2023-04-16T00:53:28.887Z,8.13
2023-04-16T00:55:56.143Z,6.60
2023-04-16T00:58:23.579Z,6.07
2023-04-16T01:00:51.660Z,10.27
2023-04-16T01:03:18.137Z,8.40
2023-04-16T01:05:45.992Z,7.00
2023-04-16T01:08:20.450Z,7.68
2023-04-16T01:10:46.947Z,5.50
2023-04-16T01:13:13.569Z,6.13
2023-04-16T01:15:40.039Z,6.03
2023-04-16T01:18:21.284Z,7.93
2023-04-16T01:20:48.841Z,3.65
2023-04-16T01:23:15.964Z,7.75
2023-04-16T01:25:42.324Z,7.22
2023-04-16T01:28:08.694Z,10.07
2023-04-16T01:30:35.110Z,8.23
2023-04-16T01:33:01.560Z,9.15
2023-04-16T01:35:28.238Z,12.98
2023-04-16T01:37:54.883Z,6.75
2023-04-16T01:40:21.364Z,7.30
2023-04-16T01:42:47.894Z,9.53
2023-04-16T01:45:14.368Z,7.90
2023-04-16T01:47:40.843Z,6.05
2023-04-16T01:50:07.801Z,7.50
2023-04-16T01:52:34.287Z,10.50
2023-04-16T01:55:00.758Z,8.40
2023-04-16T01:57:27.122Z,10.90
2023-04-16T01:59:53.504Z,9.15
2023-04-16T02:02:20.099Z,9.15
2023-04-16T02:04:46.576Z,9.15
2023-04-16T02:07:12.956Z,10.23
2023-04-16T02:09:40.928Z,13.10
2023-04-16T02:12:07.883Z,10.07
2023-04-16T02:14:34.283Z,14.52
2023-04-16T02:17:00.835Z,6.90
2023-04-16T02:19:27.326Z,11.87
2023-04-16T02:21:54.822Z,12.43
2023-04-16T02:24:21.631Z,10.38
2023-04-16T02:26:48.296Z,11.60
2023-04-16T02:29:16.392Z,7.78
2023-04-16T02:31:43.063Z,9.90
2023-04-16T02:34:09.463Z,9.60
2023-04-16T02:36:35.997Z,10.23
2023-04-16T02:39:02.536Z,11.02
2023-04-16T02:41:28.969Z,10.65
2023-04-16T02:43:55.354Z,11.13
2023-04-16T02:46:22.025Z,11.50
2023-04-16T02:48:48.483Z,9.98
2023-04-16T02:51:14.894Z,12.68
2023-04-16T02:53:45.468Z,13.57
2023-04-16T02:56:12.868Z,10.93
2023-04-16T02:58:39.268Z,15.70
2023-04-16T03:01:05.761Z,9.85
2023-04-16T03:03:32.182Z,12.10
2023-04-16T03:05:58.589Z,10.85
2023-04-16T03:08:25.162Z,11.70
2023-04-16T03:10:51.615Z,10.05
2023-04-16T03:13:18.061Z,13.25
2023-04-16T03:15:49.606Z,15.30
2023-04-16T03:18:16.410Z,12.45
2023-04-16T03:20:42.822Z,12.57
2023-04-16T03:23:09.297Z,13.27
2023-04-16T03:25:36.573Z,13.95
2023-04-16T03:28:03.793Z,15.45
2023-04-16T03:30:30.315Z,13.07
2023-04-16T03:32:56.724Z,11.93
2023-04-16T03:35:23.128Z,12.38
2023-04-16T03:37:50.277Z,12.02
2023-04-16T03:40:16.787Z,15.07
2023-04-16T03:42:43.175Z,12.93
2023-04-16T03:45:09.848Z,14.63
2023-04-16T03:47:36.231Z,11.10
2023-04-16T03:50:02.766Z,11.50
2023-04-16T03:52:29.238Z,12.90
2023-04-16T03:54:55.787Z,12.38
2023-04-16T03:57:22.147Z,10.57
2023-04-16T03:59:48.508Z,13.85
2023-04-16T04:02:14.965Z,12.18
2023-04-16T04:04:41.467Z,11.50
2023-04-16T04:07:07.998Z,12.05
2023-04-16T04:09:34.385Z,14.63
2023-04-16T04:12:00.928Z,13.85
2023-04-16T04:14:27.362Z,14.32
2023-04-16T04:16:54.260Z,11.35
2023-04-16T04:19:20.780Z,12.52
2023-04-16T04:21:47.162Z,10.97
2023-04-16T04:24:13.582Z,13.15
2023-04-16T04:26:39.972Z,12.20
2023-04-16T04:29:06.564Z,14.02
2023-04-16T04:31:32.994Z,13.52
2023-04-16T04:33:59.383Z,10.70
2023-04-16T04:36:27.143Z,16.08
2023-04-16T04:38:53.516Z,11.55
2023-04-16T04:41:20.052Z,15.63
2023-04-16T04:43:46.392Z,12.13
2023-04-16T04:46:12.857Z,15.13
2023-04-16T04:48:39.217Z,12.90
2023-04-16T04:51:05.854Z,11.52
2023-04-16T04:53:32.227Z,12.73
2023-04-16T04:56:05.431Z,16.17
2023-04-16T04:58:38.370Z,14.97
2023-04-16T05:01:05.113Z,13.63
2023-04-16T05:03:31.693Z,12.15
2023-04-16T05:05:58.124Z,12.68
2023-04-16T05:08:24.483Z,13.63
2023-04-16T05:10:51.089Z,12.63
2023-04-16T05:13:17.469Z,11.20
2023-04-16T05:15:45.029Z,12.20
2023-04-16T05:18:11.448Z,12.40
2023-04-16T05:20:37.962Z,17.58
2023-04-16T05:23:04.401Z,12.10
2023-04-16T05:25:30.962Z,12.27
2023-04-16T05:27:57.386Z,14.93
2023-04-16T05:30:23.786Z,15.90
2023-04-16T05:32:50.341Z,15.43
2023-04-16T05:35:17.613Z,14.47
2023-04-16T05:37:44.329Z,15.57
2023-04-16T05:40:13.760Z,14.90
2023-04-16T05:42:40.187Z,15.98
2023-04-16T05:45:07.066Z,14.23
2023-04-16T05:47:33.466Z,11.40
2023-04-16T05:49:59.848Z,15.60
2023-04-16T05:52:26.262Z,11.75
2023-04-16T05:54:52.643Z,14.23
2023-04-16T05:57:18.996Z,15.57
2023-04-16T05:59:45.554Z,10.87
2023-04-16T06:02:12.403Z,16.05
2023-04-16T06:04:38.847Z,16.75
2023-04-16T06:07:05.548Z,11.00
2023-04-16T06:09:31.898Z,12.90
2023-04-16T06:11:58.300Z,12.50
2023-04-16T06:14:24.740Z,14.65
2023-04-16T06:16:51.203Z,13.50
2023-04-16T06:19:17.577Z,13.55
2023-04-16T06:21:44.075Z,12.45
2023-04-16T06:24:10.565Z,14.97
2023-04-16T06:26:36.995Z,13.05
2023-04-16T06:29:03.353Z,17.15
2023-04-16T06:31:30.366Z,13.60
2023-04-16T06:33:57.010Z,14.55
2023-04-16T06:36:23.542Z,11.30
2023-04-16T06:38:49.912Z,12.63
2023-04-16T06:41:16.322Z,15.88
2023-04-16T06:43:42.712Z,14.50
2023-04-16T06:46:09.122Z,13.02
2023-04-16T06:48:35.687Z,14.03
2023-04-16T06:51:02.254Z,15.25
2023-04-16T06:53:28.657Z,13.88
2023-04-16T06:55:55.562Z,15.75
2023-04-16T06:58:22.499Z,16.92
2023-04-16T07:00:48.908Z,15.17
2023-04-16T07:03:15.538Z,14.80
2023-04-16T07:05:42.034Z,15.93
2023-04-16T07:08:08.490Z,12.85
2023-04-16T07:10:34.983Z,16.50
2023-04-16T07:13:01.668Z,16.17
2023-04-16T07:15:29.002Z,17.95
2023-04-16T07:17:55.629Z,19.73
2023-04-16T07:20:22.118Z,17.45
2023-04-16T07:22:48.574Z,17.75
2023-04-16T07:25:14.930Z,17.70
2023-04-16T07:27:41.310Z,14.80
2023-04-16T07:30:08.150Z,15.90
2023-04-16T07:32:35.041Z,16.98
2023-04-16T07:35:01.632Z,16.25
2023-04-16T07:37:27.989Z,15.57
2023-04-16T07:39:57.497Z,13.77
2023-04-16T07:42:23.962Z,13.20
2023-04-16T07:44:50.415Z,12.25
2023-04-16T07:47:16.814Z,16.73
2023-04-16T07:49:43.303Z,12.03
2023-04-16T07:52:09.681Z,14.35
2023-04-16T07:54:36.243Z,15.77
2023-04-16T07:57:02.685Z,13.88
2023-04-16T07:59:29.543Z,17.50
2023-04-16T08:01:56.437Z,16.20
2023-04-16T08:04:25.473Z,12.90
2023-04-16T08:06:53.045Z,14.25
2023-04-16T08:09:21.597Z,13.60
2023-04-16T08:11:49.881Z,15.75
2023-04-16T08:14:17.057Z,13.00
2023-04-16T08:16:43.405Z,13.63
2023-04-16T08:19:10.168Z,13.05
2023-04-16T08:21:36.865Z,12.65
2023-04-16T08:24:03.316Z,14.90
2023-04-16T08:26:29.690Z,11.17
2023-04-16T08:28:56.035Z,10.32
2023-04-16T08:31:22.529Z,11.10
2023-04-16T08:33:48.938Z,8.40
2023-04-16T08:36:15.329Z,8.82
2023-04-16T08:38:43.499Z,9.53
2023-04-16T08:41:12.430Z,9.07
2023-04-16T08:43:44.410Z,9.77
2023-04-16T08:46:12.516Z,9.15
2023-04-16T08:48:42.041Z,9.02
2023-04-16T08:51:10.660Z,8.60
2023-04-16T08:53:48.278Z,8.88
2023-04-16T08:56:15.750Z,7.53
2023-04-16T08:58:42.309Z,8.32
2023-04-16T09:01:13.557Z,9.02
2023-04-16T09:03:50.004Z,9.40
2023-04-16T09:06:17.199Z,7.18
2023-04-16T09:08:48.417Z,6.97
2023-04-16T09:11:17.956Z,9.40
2023-04-16T09:13:45.984Z,6.82
2023-04-16T09:16:13.459Z,9.13
2023-04-16T09:18:40.353Z,7.15
2023-04-16T09:21:09.956Z,11.63
2023-04-16T09:23:37.483Z,8.00
2023-04-16T09:26:04.847Z,8.73
2023-04-16T09:28:48.694Z,6.67
2023-04-16T09:31:17.123Z,7.25
2023-04-16T09:33:44.563Z,8.57
2023-04-16T09:36:11.165Z,7.15
2023-04-16T09:38:53.683Z,7.82
2023-04-16T09:41:27.516Z,5.93
2023-04-16T09:43:57.991Z,8.05
2023-04-16T09:46:31.713Z,6.70
2023-04-16T09:48:58.311Z,8.02
2023-04-16T09:51:26.928Z,9.68
2023-04-16T09:53:54.866Z,6.33
2023-04-16T09:56:26.123Z,9.57
2023-04-16T09:58:58.169Z,10.23
2023-04-16T10:01:24.977Z,7.57
2023-04-16T10:03:54.634Z,11.73
2023-04-16T10:06:23.104Z,8.83
2023-04-16T10:08:52.898Z,9.05
2023-04-16T10:11:20.532Z,10.07
2023-04-16T10:13:47.140Z,11.25
2023-04-16T10:16:13.639Z,9.32
2023-04-16T10:18:42.538Z,9.27
2023-04-16T10:21:11.931Z,9.85
2023-04-16T10:23:39.811Z,12.35
2023-04-16T10:26:06.737Z,11.20
2023-04-16T10:28:35.398Z,12.98
2023-04-16T10:31:09.038Z,11.43
2023-04-16T10:33:39.292Z,12.63
2023-04-16T10:36:13.617Z,14.02
2023-04-16T10:38:56.584Z,14.35
2023-04-16T10:41:22.965Z,13.95
2023-04-16T10:43:51.528Z,15.13
2023-04-16T10:46:23.641Z,14.82
2023-04-16T10:48:53.322Z,14.35
2023-04-16T10:51:26.204Z,11.05
2023-04-16T10:53:54.501Z,12.43
2023-04-16T10:56:26.324Z,12.63
2023-04-16T10:58:54.091Z,11.35
2023-04-16T11:01:31.364Z,14.65
2023-04-16T11:04:02.220Z,13.35
2023-04-16T11:06:29.565Z,12.95
2023-04-16T11:08:56.164Z,12.70
2023-04-16T11:11:23.278Z,11.27
2023-04-16T11:13:50.038Z,14.30
2023-04-16T11:16:17.104Z,12.13
2023-04-16T11:18:51.276Z,12.88
2023-04-16T11:21:18.414Z,11.70
2023-04-16T11:23:50.162Z,10.75
2023-04-16T11:26:27.842Z,9.55
2023-04-16T11:28:56.696Z,11.18
2023-04-16T11:31:24.022Z,13.27
2023-04-16T11:33:50.868Z,12.13
2023-04-16T11:36:17.461Z,12.50
2023-04-16T11:38:43.936Z,12.77
2023-04-16T11:41:11.104Z,13.15
2023-04-16T11:43:37.680Z,14.18
2023-04-16T11:46:19.980Z,11.87
2023-04-16T11:48:55.483Z,14.65
2023-04-16T11:51:23.540Z,13.15
2023-04-16T11:53:54.100Z,13.80
2023-04-16T11:56:31.456Z,15.52
2023-04-16T11:59:15.724Z,12.47
2023-04-16T12:01:45.871Z,12.60
2023-04-16T12:04:14.249Z,14.20
2023-04-16T12:06:40.885Z,16.55
2023-04-16T12:09:27.278Z,15.45
2023-04-16T12:11:54.017Z,16.80
2023-04-16T12:14:20.445Z,13.68
2023-04-16T12:16:46.989Z,15.50
2023-04-16T12:19:14.023Z,13.50
2023-04-16T12:21:45.755Z,12.50
2023-04-16T12:24:14.806Z,16.10
2023-04-16T12:26:46.543Z,12.77
2023-04-16T12:29:23.250Z,14.40
2023-04-16T12:31:51.149Z,15.05
2023-04-16T12:34:18.857Z,14.95
2023-04-16T12:36:46.323Z,14.17
2023-04-16T12:39:14.485Z,14.30
2023-04-16T12:41:42.842Z,13.77
2023-04-16T12:44:17.825Z,15.05
2023-04-16T12:46:44.795Z,10.10
2023-04-16T12:49:11.675Z,12.13
2023-04-16T12:51:39.137Z,14.43
2023-04-16T12:54:09.886Z,16.38
2023-04-16T12:56:36.515Z,13.77
2023-04-16T12:59:03.428Z,14.27
2023-04-16T13:01:29.910Z,13.00
2023-04-16T13:03:56.620Z,14.27
2023-04-16T13:06:23.345Z,14.63
2023-04-16T13:08:49.712Z,14.23
2023-04-16T13:11:16.489Z,14.88
2023-04-16T13:13:42.895Z,13.67
2023-04-16T13:16:09.432Z,18.88
2023-04-16T13:18:40.108Z,13.98
2023-04-16T13:21:06.665Z,17.08
2023-04-16T13:23:33.067Z,14.43
2023-04-16T13:25:59.466Z,14.27
2023-04-16T13:28:25.947Z,15.20
2023-04-16T13:30:53.044Z,14.43
2023-04-16T13:33:20.699Z,18.70
2023-04-16T13:35:49.081Z,19.77
2023-04-16T13:38:15.872Z,18.57
2023-04-16T13:40:44.663Z,17.33
2023-04-16T13:43:13.803Z,15.10
2023-04-16T13:46:02.008Z,14.32
2023-04-16T13:48:29.301Z,15.80
2023-04-16T13:50:56.174Z,14.57
2023-04-16T13:53:24.623Z,14.93
2023-04-16T13:56:15.258Z,15.90
2023-04-16T13:58:41.853Z,14.88
2023-04-16T14:01:09.814Z,16.88
2023-04-16T14:03:38.450Z,11.23
2023-04-16T14:06:05.549Z,14.70
2023-04-16T14:08:32.028Z,14.45
2023-04-16T14:10:58.794Z,14.02
2023-04-16T14:13:25.470Z,13.52
2023-04-16T14:15:54.922Z,11.90
2023-04-16T14:18:21.348Z,11.38
2023-04-16T14:20:48.198Z,13.68
2023-04-16T14:23:14.593Z,14.27
2023-04-16T14:25:40.960Z,14.00
2023-04-16T14:28:08.903Z,11.77
2023-04-16T14:30:35.362Z,15.52
2023-04-16T14:33:02.668Z,13.95
2023-04-16T14:35:29.143Z,12.98
2023-04-16T14:37:56.050Z,11.30
2023-04-16T14:40:22.492Z,10.10
2023-04-16T14:42:48.872Z,12.75
2023-04-16T14:45:16.013Z,12.98
2023-04-16T14:47:47.982Z,14.02
2023-04-16T14:50:15.611Z,15.18
2023-04-16T14:52:42.356Z,12.77
2023-04-16T14:55:08.882Z,16.60
2023-04-16T14:57:35.315Z,13.88
2023-04-16T15:00:02.140Z,14.20
2023-04-16T15:02:28.962Z,14.95
2023-04-16T15:04:55.606Z,12.00
2023-04-16T15:07:22.203Z,12.60
2023-04-16T15:09:48.557Z,15.57
2023-04-16T15:12:15.511Z,13.20
2023-04-16T15:14:43.366Z,14.90
2023-04-16T15:17:10.047Z,16.00
2023-04-16T15:19:36.714Z,14.88
2023-04-16T15:22:03.151Z,12.18
2023-04-16T15:24:29.595Z,12.95
2023-04-16T15:26:56.169Z,11.63
2023-04-16T15:29:22.548Z,12.60
2023-04-16T15:31:48.936Z,12.45
2023-04-16T15:34:15.410Z,14.35
2023-04-16T15:36:42.049Z,14.30
2023-04-16T15:39:09.740Z,14.63
2023-04-16T15:41:47.004Z,14.53
2023-04-16T15:44:23.828Z,11.93
2023-04-16T15:46:50.325Z,11.73
2023-04-16T15:49:16.788Z,15.52
2023-04-16T15:51:43.253Z,13.48
2023-04-16T15:54:09.766Z,15.73
2023-04-16T15:56:36.207Z,13.40
2023-04-16T15:59:03.785Z,14.45
2023-04-16T16:01:31.082Z,17.02
2023-04-16T16:03:57.782Z,17.35
2023-04-16T16:06:24.614Z,14.40
2023-04-16T16:08:51.144Z,16.48
2023-04-16T16:11:17.612Z,12.50
2023-04-16T16:13:44.093Z,13.35
2023-04-16T16:16:10.708Z,15.02
2023-04-16T16:18:37.377Z,14.63
2023-04-16T16:21:03.948Z,15.57
2023-04-16T16:23:30.413Z,15.88
2023-04-16T16:25:56.904Z,17.65
2023-04-16T16:28:25.030Z,17.50
2023-04-16T16:30:53.768Z,15.83
2023-04-16T16:33:20.737Z,16.75
2023-04-16T16:35:47.278Z,18.30
2023-04-16T16:38:13.743Z,17.40
2023-04-16T16:40:40.212Z,16.00
2023-04-16T16:43:06.618Z,19.57
2023-04-16T16:45:33.004Z,17.70
2023-04-16T16:47:59.401Z,14.60
2023-04-16T16:50:26.112Z,20.30
2023-04-16T16:52:52.501Z,16.45
2023-04-16T16:55:20.191Z,16.40
2023-04-16T16:57:46.592Z,15.65
2023-04-16T17:00:14.245Z,17.00
2023-04-16T17:02:41.230Z,14.73
2023-04-16T17:05:08.257Z,13.30
2023-04-16T17:07:34.652Z,12.47
2023-04-16T17:10:03.814Z,13.75
2023-04-16T17:12:31.828Z,15.57
2023-04-16T17:14:58.300Z,13.27
2023-04-16T17:17:25.133Z,13.60
2023-04-16T17:19:51.595Z,16.17
2023-04-16T17:22:18.260Z,19.25
2023-04-16T17:24:44.622Z,15.23
2023-04-16T17:27:11.160Z,15.70
2023-04-16T17:29:37.521Z,15.35
2023-04-16T17:32:04.289Z,16.43
2023-04-16T17:34:30.781Z,13.35
2023-04-16T17:36:57.176Z,15.88
2023-04-16T17:39:23.594Z,14.70
2023-04-16T17:41:54.205Z,14.30
2023-04-16T17:44:20.906Z,13.33
2023-04-16T17:46:47.293Z,15.70
2023-04-16T17:49:13.660Z,14.20
2023-04-16T17:51:41.017Z,15.85
2023-04-16T17:54:07.430Z,16.23
2023-04-16T17:56:33.839Z,13.57
2023-04-16T17:59:00.678Z,17.38
2023-04-16T18:01:27.522Z,13.60
2023-04-16T18:03:54.337Z,13.88
2023-04-16T18:06:20.985Z,15.02
2023-04-16T18:08:47.330Z,18.53
2023-04-16T18:11:13.714Z,17.92
2023-04-16T18:13:40.480Z,19.10
2023-04-16T18:16:13.398Z,16.77
2023-04-16T18:18:39.810Z,19.58
2023-04-16T18:21:06.186Z,17.20
2023-04-16T18:23:32.641Z,17.33
2023-04-16T18:25:59.012Z,19.80
2023-04-16T18:28:26.795Z,19.77
2023-04-16T18:30:53.425Z,17.95
2023-04-16T18:33:44.464Z,17.90
2023-04-16T18:36:06.630Z,18.73
2023-04-16T18:38:33.112Z,18.60
2023-04-16T18:40:59.605Z,18.10
2023-04-16T18:43:26.135Z,18.27
2023-04-16T18:45:52.582Z,19.90
2023-04-16T18:48:19.001Z,17.20
2023-04-16T18:50:45.573Z,19.15
2023-04-16T18:53:12.045Z,23.10
2023-04-16T18:55:38.400Z,19.42
2023-04-16T18:58:04.851Z,21.93
2023-04-16T19:00:31.620Z,17.08
2023-04-16T19:02:58.025Z,21.55
2023-04-16T19:05:24.461Z,20.95
2023-04-16T19:07:50.903Z,19.25
2023-04-16T19:10:17.464Z,20.30
2023-04-16T19:12:43.878Z,20.60
2023-04-16T19:15:10.907Z,22.27
2023-04-16T19:17:37.288Z,19.05
2023-04-16T19:20:08.390Z,20.13
2023-04-16T19:22:34.765Z,20.63
2023-04-16T19:25:01.922Z,20.23
2023-04-16T19:27:31.694Z,20.20
2023-04-16T19:29:58.117Z,18.20
2023-04-16T19:32:24.599Z,17.98
2023-04-16T19:34:51.001Z,18.50
2023-04-16T19:37:17.451Z,19.65
2023-04-16T19:39:43.850Z,18.65
2023-04-16T19:42:10.315Z,18.30
2023-04-16T19:44:36.757Z,20.75
2023-04-16T19:47:03.221Z,19.03
2023-04-16T19:49:29.649Z,19.08
2023-04-16T19:51:56.005Z,18.70
2023-04-16T19:54:22.351Z,18.95
2023-04-16T19:56:51.663Z,19.58
2023-04-16T19:59:18.084Z,22.33
2023-04-16T20:01:44.679Z,21.10
2023-04-16T20:04:11.520Z,20.02
2023-04-16T20:06:37.978Z,20.88
2023-04-16T20:09:04.919Z,18.52
2023-04-16T20:11:31.317Z,23.07
2023-04-16T20:14:00.291Z,22.85
2023-04-16T20:16:26.853Z,16.30
2023-04-16T20:18:54.369Z,19.65
2023-04-16T20:21:25.124Z,19.35
2023-04-16T20:23:51.491Z,20.67
2023-04-16T20:26:19.254Z,19.58
2023-04-16T20:28:45.897Z,20.23
2023-04-16T20:31:12.912Z,21.65
2023-04-16T20:33:39.402Z,24.45
2023-04-16T20:36:06.727Z,21.07
2023-04-16T20:38:34.296Z,22.60
2023-04-16T20:41:10.571Z,20.08
2023-04-16T20:43:42.002Z,19.67
2023-04-16T20:46:08.999Z,21.65
2023-04-16T20:48:35.529Z,22.30
2023-04-16T20:51:03.727Z,22.20
2023-04-16T20:53:33.777Z,17.80
2023-04-16T20:56:00.548Z,20.90
2023-04-16T20:58:29.780Z,23.13
2023-04-16T21:00:57.539Z,23.17
2023-04-16T21:03:24.663Z,22.25
2023-04-16T21:05:55.809Z,21.13
2023-04-16T21:08:23.555Z,24.10
2023-04-16T21:10:50.887Z,22.42
2023-04-16T21:13:17.271Z,23.23
2023-04-16T21:15:44.753Z,23.42
2023-04-16T21:18:11.513Z,23.25
2023-04-16T21:20:38.852Z,24.23
2023-04-16T21:23:06.039Z,21.50
2023-04-16T21:25:33.500Z,20.87
2023-04-16T21:27:59.933Z,22.48
2023-04-16T21:30:26.450Z,23.35
2023-04-16T21:32:52.903Z,23.55
2023-04-16T21:35:19.436Z,18.58
2023-04-16T21:37:45.822Z,25.30
2023-04-16T21:40:12.371Z,23.40
2023-04-16T21:42:42.393Z,22.27
2023-04-16T21:45:10.141Z,18.67
2023-04-16T21:47:37.176Z,17.38
2023-04-16T21:50:04.004Z,21.87
2023-04-16T21:52:30.543Z,19.73
2023-04-16T21:54:56.901Z,19.77
2023-04-16T21:57:23.451Z,20.33
2023-04-16T21:59:49.860Z,20.30
2023-04-16T22:02:16.432Z,21.30
2023-04-16T22:04:43.603Z,22.60
2023-04-16T22:07:10.057Z,21.05
2023-04-16T22:09:36.543Z,22.90
2023-04-16T22:12:03.111Z,22.45
2023-04-16T22:14:30.174Z,24.47
2023-04-16T22:16:56.639Z,22.45
2023-04-16T22:19:23.083Z,22.90
2023-04-16T22:21:49.489Z,27.33
2023-04-16T22:24:15.863Z,24.33
2023-04-16T22:26:42.428Z,24.00
2023-04-16T22:29:08.847Z,24.15
2023-04-16T22:31:35.447Z,26.70
2023-04-16T22:34:03.444Z,25.80
2023-04-16T22:36:30.913Z,21.48
2023-04-16T22:38:57.305Z,24.07
2023-04-16T22:41:23.837Z,25.67
2023-04-16T22:43:52.485Z,26.33
2023-04-16T22:46:22.357Z,24.88
2023-04-16T22:48:48.815Z,27.05
2023-04-16T22:51:15.280Z,27.70
2023-04-16T22:53:41.804Z,25.83
2023-04-16T22:56:08.253Z,23.35
2023-04-16T22:58:34.651Z,26.92
2023-04-16T23:01:01.692Z,27.98
2023-04-16T23:03:28.256Z,23.43
2023-04-16T23:05:54.803Z,22.15
2023-04-16T23:08:21.174Z,23.95
2023-04-16T23:10:47.542Z,26.15
2023-04-16T23:13:13.911Z,25.92
2023-04-16T23:15:40.479Z,27.60
2023-04-16T23:18:06.953Z,23.58
2023-04-16T23:20:33.383Z,24.25
2023-04-16T23:22:59.735Z,28.15
2023-04-16T23:25:26.221Z,27.40
2023-04-16T23:27:52.570Z,26.83
2023-04-16T23:30:19.028Z,27.90
2023-04-16T23:32:45.502Z,29.63
2023-04-16T23:35:11.917Z,24.15
2023-04-16T23:37:38.265Z,28.63
2023-04-16T23:40:05.262Z,26.53
2023-04-16T23:42:31.642Z,25.40
2023-04-16T23:44:58.116Z,24.30
2023-04-16T23:47:24.509Z,25.55
2023-04-16T23:49:50.996Z,24.23
2023-04-16T23:52:17.442Z,28.87
2023-04-16T23:54:43.850Z,28.20
2023-04-16T23:57:10.345Z,26.98
2023-04-16T23:59:36.682Z,27.38
